Time;durP1;ratioP1;P1;durP2;ratioP2;P2;SDS_P1;SDS_P2;PMS_P1;PMS_P2;Temp;Humidity;BMP_temperature;BMP_pressure;BME280_temperature;BME280_humidity;BME280_pressure;Samples;Min_cycle;Max_cycle;Signal;HPM_P1;HPM_P2
2023/05/12 00:01:36;;;;;;;4.93;2.92;;;;;;;;;;4922051;29;20071;-68
2023/05/12 00:04:01;;;;;;;6.25;2.72;;;;;;;;;;4926523;29;20031;-69
2023/05/12 00:06:27;;;;;;;4.32;3.10;;;;;;;;;;4924623;29;20603;-69
2023/05/12 00:08:52;;;;;;;4.72;3.33;;;;;;;;;;4921708;29;20451;-68
2023/05/12 00:11:17;;;;;;;7.43;3.20;;;;;;;;;;4923496;29;20024;-68
2023/05/12 00:13:42;;;;;;;4.70;3.33;;;;;;;;;;4924113;29;20042;-69
2023/05/12 00:16:08;;;;;;;5.47;3.10;;;;;;;;;;4925520;29;20756;-69
2023/05/12 00:18:34;;;;;;;8.07;3.28;;;;;;;;;;4926401;29;20091;-69
2023/05/12 00:20:59;;;;;;;6.03;3.28;;;;;;;;;;4926290;29;20082;-69
2023/05/12 00:23:24;;;;;;;4.00;3.22;;;;;;;;;;4923531;29;20035;-69
2023/05/12 00:25:49;;;;;;;4.23;3.20;;;;;;;;;;4921957;29;20046;-69
2023/05/12 00:28:15;;;;;;;3.70;3.30;;;;;;;;;;4919948;29;21045;-76
2023/05/12 00:30:40;;;;;;;5.97;3.45;;;;;;;;;;4921417;29;20434;-76
2023/05/12 00:33:06;;;;;;;8.02;3.20;;;;;;;;;;4922373;29;20505;-75
2023/05/12 00:35:31;;;;;;;4.17;2.90;;;;;;;;;;4920391;29;20032;-75
2023/05/12 00:37:56;;;;;;;5.73;3.23;;;;;;;;;;4923640;29;20522;-75
2023/05/12 00:40:21;;;;;;;5.05;3.55;;;;;;;;;;4921421;29;20302;-75
2023/05/12 00:42:48;;;;;;;5.83;3.23;;;;;;;;;;4902432;29;20063;-75
2023/05/12 00:45:13;;;;;;;3.75;3.35;;;;;;;;;;4924493;29;20047;-69
2023/05/12 00:47:39;;;;;;;5.68;3.03;;;;;;;;;;4918636;29;20142;-68
2023/05/12 00:50:05;;;;;;;5.78;3.58;;;;;;;;;;4920713;29;20032;-74
2023/05/12 00:52:30;;;;;;;3.50;3.05;;;;;;;;;;4921306;29;20035;-74
2023/05/12 00:54:56;;;;;;;3.88;2.95;;;;;;;;;;4921362;29;20035;-75
2023/05/12 00:57:21;;;;;;;3.40;3.08;;;;;;;;;;4919592;29;20039;-76
2023/05/12 00:59:47;;;;;;;3.97;3.50;;;;;;;;;;4921875;29;20055;-75
2023/05/12 01:02:12;;;;;;;4.15;3.45;;;;;;;;;;4923159;29;20537;-75
2023/05/12 01:04:38;;;;;;;5.53;3.97;;;;;;;;;;4921941;29;20036;-74
2023/05/12 01:07:07;;;;;;;4.50;3.42;;;;;;;;;;4922169;29;20028;-75
2023/05/12 01:09:32;;;;;;;6.50;3.45;;;;;;;;;;4919867;29;20090;-75
2023/05/12 01:11:57;;;;;;;4.83;3.47;;;;;;;;;;4920595;29;20036;-76
2023/05/12 01:14:23;;;;;;;5.90;3.60;;;;;;;;;;4899340;29;20147;-76
2023/05/12 01:16:52;;;;;;;6.07;3.60;;;;;;;;;;4918177;29;20031;-69
2023/05/12 01:19:35;;;;;;;4.55;3.28;;;;;;;;;;4918978;29;20505;-70
2023/05/12 01:22:01;;;;;;;6.90;3.65;;;;;;;;;;4918402;29;20062;-68
2023/05/12 01:24:28;;;;;;;6.43;3.53;;;;;;;;;;4919021;29;20039;-68
2023/05/12 01:26:53;;;;;;;4.72;3.50;;;;;;;;;;4919238;29;20577;-69
2023/05/12 01:29:20;;;;;;;5.30;3.80;;;;;;;;;;4905789;29;20071;-69
2023/05/12 01:31:45;;;;;;;5.03;3.58;;;;;;;;;;4911267;29;20055;-69
2023/05/12 01:34:14;;;;;;;7.25;3.75;;;;;;;;;;4927184;29;20086;-69
2023/05/12 01:36:39;;;;;;;4.38;3.50;;;;;;;;;;4929324;29;20091;-68
2023/05/12 01:39:04;;;;;;;7.17;4.20;;;;;;;;;;4926284;29;20035;-69
2023/05/12 01:41:30;;;;;;;6.30;4.27;;;;;;;;;;4926720;29;20770;-69
2023/05/12 01:43:55;;;;;;;7.03;3.67;;;;;;;;;;4922769;29;20031;-69
2023/05/12 01:46:20;;;;;;;7.10;3.83;;;;;;;;;;4919781;29;20040;-69
2023/05/12 01:48:45;;;;;;;6.93;3.57;;;;;;;;;;4918202;29;20044;-69
2023/05/12 01:51:11;;;;;;;4.17;3.50;;;;;;;;;;4920673;29;20036;-69
2023/05/12 01:53:36;;;;;;;5.40;3.40;;;;;;;;;;4918938;29;20035;-69
2023/05/12 01:56:01;;;;;;;5.25;3.35;;;;;;;;;;4904952;29;21033;-69
2023/05/12 01:58:26;;;;;;;3.77;3.30;;;;;;;;;;4920874;29;20079;-69
2023/05/12 02:00:52;;;;;;;5.97;4.30;;;;;;;;;;4911545;29;20278;-69
2023/05/12 02:03:18;;;;;;;6.67;4.03;;;;;;;;;;4921921;29;20031;-70
2023/05/12 02:05:43;;;;;;;6.60;3.75;;;;;;;;;;4917311;29;20171;-70
2023/05/12 02:08:08;;;;;;;6.50;3.70;;;;;;;10.86;nan;100566.06;4910101;29;20110;-70
2023/05/12 02:10:33;;;;;;;4.82;3.50;;;;;;;;;;4903969;29;20282;-68
2023/05/12 02:12:59;;;;;;;5.57;3.75;;;;;;;;;;4921381;29;20191;-69
2023/05/12 02:15:24;;;;;;;7.43;3.90;;;;;;;;;;4920029;29;20035;-70
2023/05/12 02:17:52;;;;;;;6.90;4.27;;;;;;;;;;4906913;29;20040;-70
2023/05/12 02:20:18;;;;;;;6.22;3.90;;;;;;;;;;4919591;29;20308;-69
2023/05/12 02:22:43;;;;;;;7.22;4.05;;;;;;;;;;4906308;29;20502;-70
2023/05/12 02:25:08;;;;;;;4.33;3.60;;;;;;;;;;4926179;29;20034;-70
2023/05/12 02:27:33;;;;;;;4.22;3.65;;;;;;;10.76;nan;100570.25;4925325;29;20266;-70
2023/05/12 02:29:59;;;;;;;6.28;3.67;;;;;;;;;;4926141;29;20031;-74
2023/05/12 02:32:26;;;;;;;7.27;3.60;;;;;;;;;;4923756;29;20023;-75
2023/05/12 02:34:52;;;;;;;4.00;3.42;;;;;;;;;;4924624;29;20274;-76
2023/05/12 02:37:17;;;;;;;5.85;3.80;;;;;;;;;;4926101;29;20182;-75
2023/05/12 02:39:42;;;;;;;5.83;3.83;;;;;;;;;;4925455;29;20558;-75
2023/05/12 02:42:08;;;;;;;4.67;3.60;;;;;;;;;;4923789;29;20491;-76
2023/05/12 02:44:33;;;;;;;5.85;3.67;;;;;;;;;;4924553;29;20032;-76
2023/05/12 02:46:58;;;;;;;5.03;4.13;;;;;;;;;;4923614;29;20038;-73
2023/05/12 02:49:23;;;;;;;5.97;3.72;;;;;;;;;;4914126;29;20114;-76
2023/05/12 02:51:49;;;;;;;6.23;3.93;;;;;;;;;;4926007;29;20074;-75
2023/05/12 02:54:14;;;;;;;8.65;4.28;;;;;;;;;;4923720;29;21178;-75
2023/05/12 02:56:39;;;;;;;6.90;3.93;;;;;;;;;;4924069;29;20060;-76
2023/05/12 02:59:05;;;;;;;5.75;3.72;;;;;;;;;;4909722;29;20288;-75
2023/05/12 03:01:30;;;;;;;5.30;3.97;;;;;;;;;;4911917;29;20047;-75
2023/05/12 03:03:55;;;;;;;5.07;4.03;;;;;;;;;;4925277;29;20354;-74
2023/05/12 03:06:20;;;;;;;6.77;4.20;;;;;;;;;;4914857;29;20290;-76
2023/05/12 03:08:46;;;;;;;8.40;4.40;;;;;;;;;;4925087;29;20035;-76
2023/05/12 03:11:11;;;;;;;6.63;3.93;;;;;;;;;;4925093;29;20289;-76
2023/05/12 03:13:36;;;;;;;6.00;4.40;;;;;;;;;;4924262;29;20318;-75
2023/05/12 03:16:02;;;;;;;7.35;3.80;;;;;;;;;;4926381;29;20024;-76
2023/05/12 03:18:27;;;;;;;5.35;3.85;;;;;;;;;;4925927;29;20039;-76
2023/05/12 03:20:53;;;;;;;7.75;4.35;;;;;;;;;;4923038;29;20035;-75
2023/05/12 03:23:18;;;;;;;5.47;4.40;;;;;;;;;;4922390;29;20115;-77
2023/05/12 03:25:43;;;;;;;6.57;4.27;;;;;;;;;;4922456;29;20110;-74
2023/05/12 03:28:09;;;;;;;6.27;4.10;;;;;;;;;;4921631;29;20341;-72
2023/05/12 03:30:34;;;;;;;12.23;4.78;;;;;;;;;;4920731;29;20123;-72
2023/05/12 03:32:59;;;;;;;6.30;4.37;;;;;;;;;;4926468;29;20031;-73
2023/05/12 03:35:24;;;;;;;7.23;4.73;;;;;;;;;;4922100;29;20436;-71
2023/05/12 03:37:50;;;;;;;6.20;4.70;;;;;;;;;;4895492;29;20293;-74
2023/05/12 03:40:17;;;;;;;5.90;4.80;;;;;;;;;;4926358;29;20047;-75
2023/05/12 03:42:42;;;;;;;7.93;4.05;;;;;;;;;;4927967;29;20346;-74
2023/05/12 03:45:08;;;;;;;5.28;4.30;;;;;;;;;;4912835;29;20076;-73
2023/05/12 03:47:34;;;;;;;5.15;3.78;;;;;;;;;;4924563;29;20047;-71
2023/05/12 03:50:00;;;;;;;6.25;4.40;;;;;;;10.31;nan;100584.53;4926210;29;20046;-75
2023/05/12 03:52:25;;;;;;;5.78;4.32;;;;;;;10.31;nan;100581.88;4922263;29;20028;-72
2023/05/12 03:54:50;;;;;;;5.78;4.35;;;;;;;;;;4925311;29;20027;-70
2023/05/12 03:57:17;;;;;;;5.83;4.37;;;;;;;;;;4926137;29;20043;-70
2023/05/12 03:59:42;;;;;;;6.90;4.38;;;;;;;;;;4924299;29;20297;-68
2023/05/12 04:02:10;;;;;;;7.53;4.67;;;;;;;;;;4928269;29;20035;-68
2023/05/12 04:04:35;;;;;;;6.88;4.30;;;;;;;;;;4929316;29;20031;-69
2023/05/12 04:07:01;;;;;;;4.95;4.20;;;;;;;;;;4927531;29;20031;-68
2023/05/12 04:09:26;;;;;;;7.87;4.00;;;;;;;;;;4915735;29;20043;-70
2023/05/12 04:11:51;;;;;;;6.22;4.15;;;;;;;;;;4914057;29;20289;-70
2023/05/12 04:14:17;;;;;;;7.90;5.22;;;;;;;;;;4921472;29;20070;-69
2023/05/12 04:16:42;;;;;;;6.43;4.32;;;;;;;;;;4908206;29;20028;-69
2023/05/12 04:19:07;;;;;;;8.93;4.65;;;;;;;;;;4924316;29;20040;-69
2023/05/12 04:21:33;;;;;;;6.30;4.20;;;;;;;;;;4923747;29;20056;-69
2023/05/12 04:23:58;;;;;;;8.67;4.00;;;;;;;;;;4921211;29;20046;-70
2023/05/12 04:26:23;;;;;;;9.20;4.67;;;;;;;;;;4923602;29;20278;-70
2023/05/12 04:28:48;;;;;;;7.20;4.87;;;;;;;;;;4920571;29;20357;-70
2023/05/12 04:31:14;;;;;;;5.27;4.00;;;;;;;;;;4922032;29;20115;-69
2023/05/12 04:33:39;;;;;;;7.63;4.53;;;;;;;;;;4922347;29;20987;-70
2023/05/12 04:36:04;;;;;;;6.00;4.67;;;;;;;;;;4920633;29;20039;-70
2023/05/12 04:38:30;;;;;;;6.75;4.60;;;;;;;;;;4921869;29;20275;-71
2023/05/12 04:40:58;;;;;;;6.50;4.43;;;;;;;;;;4920064;29;20039;-71
2023/05/12 04:43:24;;;;;;;8.65;4.93;;;;;;;;;;4921384;29;20612;-72
2023/05/12 04:45:50;;;;;;;9.43;4.38;;;;;;;10.20;nan;100582.59;4919799;29;20036;-71
2023/05/12 04:48:15;;;;;;;6.03;4.57;;;;;;;;;;4918017;29;20558;-71
2023/05/12 04:50:41;;;;;;;6.40;4.83;;;;;;;;;;4920882;29;20126;-70
2023/05/12 04:53:06;;;;;;;9.32;4.93;;;;;;;;;;4921944;29;20282;-71
2023/05/12 04:55:32;;;;;;;8.93;5.10;;;;;;;;;;4922955;29;20130;-71
2023/05/12 04:57:57;;;;;;;8.50;5.03;;;;;;;;;;4917444;29;20522;-71
2023/05/12 05:00:22;;;;;;;8.43;5.55;;;;;;;;;;4923325;29;20327;-71
2023/05/12 05:02:47;;;;;;;10.27;5.27;;;;;;;;;;4920658;29;20036;-70
2023/05/12 05:05:13;;;;;;;8.70;5.90;;;;;;;;;;4906166;29;20286;-71
2023/05/12 05:07:38;;;;;;;8.40;5.18;;;;;;;;;;4920464;29;20313;-70
2023/05/12 05:10:03;;;;;;;7.73;5.10;;;;;;;;;;4921604;29;20028;-69
2023/05/12 05:12:29;;;;;;;6.78;4.60;;;;;;;;;;4909187;29;20023;-69
2023/05/12 05:14:54;;;;;;;8.10;4.90;;;;;;;;;;4920342;29;20086;-70
2023/05/12 05:17:19;;;;;;;6.72;4.75;;;;;;;;;;4919792;29;20036;-68
2023/05/12 05:19:45;;;;;;;6.40;4.90;;;;;;;;;;4919359;29;20102;-70
2023/05/12 05:22:10;;;;;;;7.63;5.18;;;;;;;;;;4916629;29;20036;-71
2023/05/12 05:24:35;;;;;;;9.07;5.07;;;;;;;;;;4922301;29;20107;-72
2023/05/12 05:27:01;;;;;;;7.32;4.80;;;;;;;;;;4904228;29;20043;-72
2023/05/12 05:29:27;;;;;;;8.73;4.97;;;;;;;;;;4919486;29;20059;-73
2023/05/12 05:31:52;;;;;;;8.27;5.40;;;;;;;;;;4919902;29;20273;-71
2023/05/12 05:34:17;;;;;;;12.77;5.40;;;;;;;;;;4923153;29;20029;-73
2023/05/12 05:36:43;;;;;;;12.00;5.43;;;;;;;;;;4920652;29;20282;-71
2023/05/12 05:39:09;;;;;;;10.10;5.07;;;;;;;;;;4920089;29;20274;-72
2023/05/12 05:41:34;;;;;;;9.20;4.45;;;;;;;;;;4907989;29;20095;-74
2023/05/12 05:44:00;;;;;;;11.95;4.38;;;;;;;;;;4924105;29;20038;-71
2023/05/12 05:46:25;;;;;;;6.05;4.20;;;;;;;;;;4920621;29;20036;-72
2023/05/12 05:48:50;;;;;;;11.27;4.97;;;;;;;;;;4903317;29;21812;-72
2023/05/12 05:51:16;;;;;;;34.50;5.40;;;;;;;;;;4921629;29;20036;-72
2023/05/12 05:53:41;;;;;;;15.17;8.23;;;;;;;;;;4921413;29;20831;-73
2023/05/12 05:56:06;;;;;;;13.67;7.60;;;;;;;;;;4909091;29;20486;-72
2023/05/12 05:58:32;;;;;;;11.15;6.75;;;;;;;;;;4923239;29;20317;-73
2023/05/12 06:00:59;;;;;;;12.73;6.40;;;;;;;;;;4924831;29;20028;-71
2023/05/12 06:03:24;;;;;;;9.93;5.20;;;;;;;;;;4924315;29;20032;-70
2023/05/12 06:05:49;;;;;;;11.52;4.80;;;;;;;;;;4926963;29;20367;-70
2023/05/12 06:08:15;;;;;;;9.82;4.75;;;;;;;;;;4923444;29;20024;-71
2023/05/12 06:10:41;;;;;;;6.25;4.30;;;;;;;;;;4922153;29;20130;-73
2023/05/12 06:13:06;;;;;;;12.80;4.22;;;;;;;;;;4922704;29;20155;-72
2023/05/12 06:15:31;;;;;;;7.03;4.10;;;;;;;;;;4923737;29;20083;-73
2023/05/12 06:17:56;;;;;;;7.30;4.38;;;;;;;;;;4907458;29;20287;-70
2023/05/12 06:20:22;;;;;;;7.23;4.30;;;;;;;;;;4924036;29;20043;-71
2023/05/12 06:22:47;;;;;;;6.07;3.78;;;;;;;;;;4918357;29;20048;-70
2023/05/12 06:25:12;;;;;;;9.82;3.55;;;;;;;;;;4923447;29;20030;-70
2023/05/12 06:27:38;;;;;;;8.07;3.87;;;;;;;;;;4921770;29;20106;-70
2023/05/12 06:30:03;;;;;;;9.30;3.43;;;;;;;;;;4913956;29;20051;-71
2023/05/12 06:32:29;;;;;;;7.32;3.28;;;;;;;;;;4928744;29;20302;-70
2023/05/12 06:34:54;;;;;;;5.68;3.35;;;;;;;;;;4916703;29;21498;-71
2023/05/12 06:37:19;;;;;;;7.53;3.77;;;;;;;;;;4934989;29;20061;-71
2023/05/12 06:39:45;;;;;;;4.67;3.13;;;;;;;;;;4930747;29;20043;-70
2023/05/12 06:42:10;;;;;;;7.83;3.33;;;;;;;;;;4932788;29;20289;-70
2023/05/12 06:44:35;;;;;;;5.47;3.30;;;;;;;;;;4922024;29;20139;-70
2023/05/12 06:47:01;;;;;;;10.18;3.75;;;;;;;;;;4922649;29;20074;-70
2023/05/12 06:49:26;;;;;;;6.28;3.50;;;;;;;;;;4923333;29;20039;-70
2023/05/12 06:51:52;;;;;;;6.47;4.03;;;;;;;;;;4923399;29;20107;-70
2023/05/12 06:54:17;;;;;;;6.03;3.43;;;;;;;;;;4902253;29;20038;-70
2023/05/12 06:56:42;;;;;;;4.80;3.50;;;;;;;;;;4923644;29;20334;-69
2023/05/12 06:59:07;;;;;;;9.00;3.75;;;;;;;;;;4923069;29;20542;-70
2023/05/12 07:01:33;;;;;;;8.47;3.37;;;;;;;;;;4910257;29;20533;-70
2023/05/12 07:03:58;;;;;;;8.57;3.80;;;;;;;;;;4921752;29;20433;-70
2023/05/12 07:06:26;;;;;;;5.57;3.30;;;;;;;;;;4922520;29;20129;-72
2023/05/12 07:08:51;;;;;;;6.85;3.95;;;;;;;;;;4908847;29;20592;-72
2023/05/12 07:11:18;;;;;;;9.27;3.42;;;;;;;;;;4921557;29;20031;-70
2023/05/12 07:13:45;;;;;;;8.43;3.95;;;;;;;;;;4923671;29;20098;-72
2023/05/12 07:16:10;;;;;;;8.32;3.55;;;;;;;;;;4909238;29;20489;-71
2023/05/12 07:18:35;;;;;;;3.50;2.73;;;;;;;;;;4921594;29;20091;-72
2023/05/12 07:21:01;;;;;;;5.03;3.27;;;;;;;;;;4921633;29;20138;-72
2023/05/12 07:23:26;;;;;;;8.88;3.22;;;;;;;;;;4908454;29;20291;-71
2023/05/12 07:25:51;;;;;;;5.60;3.13;;;;;;;;;;4924894;29;20525;-69
2023/05/12 07:28:17;;;;;;;5.30;3.08;;;;;;;;;;4923356;29;20353;-72
2023/05/12 07:30:42;;;;;;;6.53;3.22;;;;;;;;;;4909413;29;20131;-73
2023/05/12 07:33:07;;;;;;;4.57;3.07;;;;;;;;;;4923379;29;20028;-72
2023/05/12 07:35:33;;;;;;;3.70;2.93;;;;;;;;;;4910227;29;20573;-70
2023/05/12 07:37:58;;;;;;;4.32;2.85;;;;;;;;;;4921821;29;20487;-70
2023/05/12 07:40:23;;;;;;;4.27;3.43;;;;;;;;;;4904020;29;20498;-71
2023/05/12 07:42:48;;;;;;;4.50;3.15;;;;;;;;;;4920902;29;20083;-70
2023/05/12 07:45:21;;;;;;;6.77;2.97;;;;;;;;;;4921066;29;20585;-70
2023/05/12 07:47:46;;;;;;;5.72;3.00;;;;;;;;;;4923372;29;20379;-70
2023/05/12 07:50:12;;;;;;;6.07;3.23;;;;;;;;;;4922957;29;20051;-70
2023/05/12 07:52:44;;;;;;;6.37;3.00;;;;;;;;;;4919774;29;20054;-70
2023/05/12 07:55:10;;;;;;;4.43;2.95;;;;;;;;;;4924659;29;21054;-71
2023/05/12 07:57:35;;;;;;;8.93;3.38;;;;;;;;;;4923660;29;20067;-71
2023/05/12 08:00:00;;;;;;;6.77;3.20;;;;;;;;;;4922559;29;20097;-71
2023/05/12 08:02:26;;;;;;;5.20;3.23;;;;;;;;;;4921708;29;20584;-71
2023/05/12 08:04:51;;;;;;;4.80;3.03;;;;;;;;;;4923288;29;20036;-71
2023/05/12 08:07:16;;;;;;;6.03;3.27;;;;;;;;;;4922112;29;20154;-72
2023/05/12 08:09:41;;;;;;;5.10;3.27;;;;;;;;;;4924136;29;20712;-70
2023/05/12 08:12:07;;;;;;;4.25;3.05;;;;;;;;;;4921450;29;20028;-72
2023/05/12 08:14:32;;;;;;;3.42;3.05;;;;;;;;;;4923384;29;20166;-68
2023/05/12 08:16:57;;;;;;;4.57;3.30;;;;;;;;;;4923002;29;20031;-67
2023/05/12 08:19:22;;;;;;;4.87;2.70;;;;;;;;;;4916624;29;20052;-68
2023/05/12 08:21:48;;;;;;;3.80;2.90;;;;;;;;;;4921932;29;20058;-67
2023/05/12 08:24:13;;;;;;;7.07;3.07;;;;;;;;;;4921514;29;20294;-68
2023/05/12 08:26:38;;;;;;;4.53;3.17;;;;;;;;;;4909742;29;20325;-69
2023/05/12 08:29:05;;;;;;;7.20;3.17;;;;;;;;;;4918218;29;20388;-67
2023/05/12 08:31:30;;;;;;;5.45;3.05;;;;;;;;;;4921148;29;20031;-68
2023/05/12 08:33:56;;;;;;;4.88;3.17;;;;;;;;;;4922032;29;20107;-69
2023/05/12 08:36:21;;;;;;;4.73;3.07;;;;;;;;;;4906090;29;20371;-69
2023/05/12 08:38:46;;;;;;;6.00;3.10;;;;;;;;;;4921351;29;20024;-69
2023/05/12 08:41:30;;;;;;;7.68;3.13;;;;;;;;;;4918973;29;20301;-69
2023/05/12 08:43:55;;;;;;;3.95;2.92;;;;;;;;;;4901960;29;20036;-68
2023/05/12 08:46:21;;;;;;;5.60;3.17;;;;;;;;;;4921958;29;20059;-69
2023/05/12 08:48:48;;;;;;;8.02;3.35;;;;;;;;;;4911211;29;20087;-68
2023/05/12 08:51:14;;;;;;;6.30;3.38;;;;;;;;;;4920772;29;20491;-69
2023/05/12 08:53:40;;;;;;;5.93;3.67;;;;;;;;;;4918114;29;20106;-69
2023/05/12 08:56:06;;;;;;;7.05;3.28;;;;;;;;;;4921179;29;20039;-68
2023/05/12 08:58:31;;;;;;;6.38;3.50;;;;;;;;;;4918427;29;20028;-68
2023/05/12 09:00:58;;;;;;;5.82;3.60;;;;;;;;;;4921760;29;20043;-70
2023/05/12 09:03:25;;;;;;;4.53;3.40;;;;;;;;;;4909985;29;20040;-68
2023/05/12 09:05:51;;;;;;;9.15;3.92;;;;;;;;;;4919885;29;20035;-68
2023/05/12 09:08:16;;;;;;;4.32;3.55;;;;;;;;;;4919869;29;20078;-69
2023/05/12 09:10:42;;;;;;;7.10;4.10;;;;;;;;;;4923662;29;20032;-68
2023/05/12 09:13:20;;;;;;;10.38;4.55;;;;;;;;;;4930827;29;20308;-67
2023/05/12 09:15:46;;;;;;;8.88;4.03;;;;;;;;;;4929420;29;20050;-65
2023/05/12 09:18:12;;;;;;;7.15;3.90;;;;;;;;;;4920286;29;20078;-68
2023/05/12 09:20:37;;;;;;;12.03;4.80;;;;;;;;;;4919291;29;20043;-68
2023/05/12 09:23:18;;;;;;;9.23;4.32;;;;;;;;;;4922790;29;20827;-69
2023/05/12 09:25:45;;;;;;;8.35;3.95;;;;;;;;;;4907261;29;20044;-70
2023/05/12 09:28:11;;;;;;;5.43;3.55;;;;;;;;;;4919650;29;20383;-70
2023/05/12 09:30:37;;;;;;;6.78;4.25;;;;;;;;;;4920393;29;20039;-68
2023/05/12 09:33:12;;;;;;;10.98;4.63;;;;;;;;;;4909912;29;20028;-71
2023/05/12 09:35:41;;;;;;;7.82;4.53;;;;;;;;;;4918457;29;20023;-71
2023/05/12 09:38:10;;;;;;;6.60;3.65;;;;;;;;;;4919689;29;20032;-71
2023/05/12 09:40:36;;;;;;;9.18;3.90;;;;;;;;;;4919417;29;20439;-69
2023/05/12 09:43:02;;;;;;;7.43;3.80;;;;;;;;;;4922555;29;20027;-69
2023/05/12 09:45:27;;;;;;;4.50;3.70;;;;;;;;;;4918497;29;20680;-70
2023/05/12 09:47:52;;;;;;;4.47;2.80;;;;;;;;;;4902259;29;20024;-71
2023/05/12 09:50:18;;;;;;;4.57;3.30;;;;;;;;;;4921290;29;20800;-71
2023/05/12 09:52:43;;;;;;;7.53;3.58;;;;;;;;;;4921470;29;20047;-69
2023/05/12 09:55:09;;;;;;;5.60;3.65;;;;;;;;;;4919560;29;20031;-70
2023/05/12 09:57:43;;;;;;;4.30;3.30;;;;;;;;;;4919343;29;20032;-69
2023/05/12 10:00:13;;;;;;;6.18;3.22;;;;;;;;;;4891883;29;20027;-69
2023/05/12 10:02:41;;;;;;;;;;;;;;;;;;4909198;29;20024;-70
2023/05/12 10:05:10;;;;;;;5.47;3.70;;;;;;;;;;4919378;29;19934;-69
2023/05/12 10:07:36;;;;;;;4.43;3.03;;;;;;;;;;4921865;29;20036;-69
2023/05/12 10:10:04;;;;;;;4.55;3.20;;;;;;;;;;4920391;29;20660;-71
2023/05/12 10:12:29;;;;;;;5.72;3.22;;;;;;;;;;4907109;29;21063;-69
2023/05/12 10:14:55;;;;;;;5.27;3.53;;;;;;;;;;4921555;29;20028;-68
2023/05/12 10:17:21;;;;;;;8.32;3.42;;;;;;;;;;4917472;29;20476;-70
2023/05/12 10:19:50;;;;;;;8.35;3.67;;;;;;;;;;4919074;29;20494;-70
2023/05/12 10:22:16;;;;;;;5.45;3.95;;;;;;;;;;4919262;29;20114;-70
2023/05/12 10:24:41;;;;;;;9.80;4.18;;;;;;;;;;4920501;29;20638;-69
2023/05/12 10:27:07;;;;;;;7.07;3.70;;;;;;;;;;4923495;29;20083;-71
2023/05/12 10:29:33;;;;;;;4.15;2.90;;;;;;;;;;4918571;29;20052;-71
2023/05/12 10:32:00;;;;;;;6.72;3.50;;;;;;;;;;4919615;29;20479;-71
2023/05/12 10:34:43;;;;;;;9.70;3.47;;;;;;;;;;4920650;29;20684;-71
2023/05/12 10:37:12;;;;;;;7.55;3.28;;;;;;;;;;4915343;29;20751;-71
2023/05/12 10:39:51;;;;;;;5.45;3.53;;;;;;;;;;4916317;29;20483;-70
2023/05/12 10:42:19;;;;;;;5.05;3.63;;;;;;;;;;4919231;29;20554;-70
2023/05/12 10:44:51;;;;;;;6.78;3.47;;;;;;;;;;4922294;29;20768;-71
2023/05/12 10:47:17;;;;;;;7.03;3.53;;;;;;;;;;4922355;29;20040;-70
2023/05/12 10:49:43;;;;;;;8.43;4.25;;;;;;;;;;4920598;29;20040;-71
2023/05/12 10:52:10;;;;;;;8.95;3.72;;;;;;;;;;4923579;29;20038;-71
2023/05/12 10:54:43;;;;;;;6.60;3.70;;;;;;;;;;4923088;29;20058;-70
2023/05/12 10:57:15;;;;;;;7.35;4.00;;;;;;;;;;4909836;29;20030;-71
2023/05/12 10:59:48;;;;;;;9.43;3.60;;;;;;;;;;4926741;29;20039;-71
2023/05/12 11:02:15;;;;;;;5.45;3.20;;;;;;;;;;4924967;29;20035;-70
2023/05/12 11:04:41;;;;;;;8.27;3.45;;;;;;;;;;4925679;29;20028;-70
2023/05/12 11:07:08;;;;;;;4.43;3.38;;;;;;;;;;4910756;29;20401;-70
2023/05/12 11:09:34;;;;;;;5.18;3.20;;;;;;;;;;4906930;29;20042;-70
2023/05/12 11:12:01;;;;;;;13.63;3.28;;;;;;;;;;4923537;29;20062;-70
2023/05/12 11:14:26;;;;;;;5.18;2.70;;;;;;;;;;4907107;29;20035;-71
2023/05/12 11:16:51;;;;;;;5.00;2.88;;;;;;;;;;4908472;29;20042;-69
2023/05/12 11:19:17;;;;;;;6.15;2.90;;;;;;;;;;4922990;29;20039;-70
2023/05/12 11:21:42;;;;;;;7.20;2.88;;;;;;;;;;4910413;29;20123;-69
2023/05/12 11:24:09;;;;;;;3.70;2.80;;;;;;;;;;4923946;29;20091;-69
2023/05/12 11:26:34;;;;;;;3.88;2.88;;;;;;;;;;4922331;29;20513;-70
2023/05/12 11:29:02;;;;;;;7.28;2.90;;;;;;;;;;4920160;29;20052;-71
2023/05/12 11:31:27;;;;;;;7.20;2.65;;;;;;;;;;4925681;29;20115;-71
2023/05/12 11:34:03;;;;;;;4.47;2.97;;;;;;;;;;4924414;29;20583;-71
2023/05/12 11:36:38;;;;;;;5.60;2.90;;;;;;;14.06;nan;100740.00;4923236;29;20039;-71
2023/05/12 11:39:05;;;;;;;4.43;2.50;;;;;;;;;;4923327;29;20506;-72
2023/05/12 11:41:30;;;;;;;4.07;3.38;;;;;;;;;;4925460;29;20046;-75
2023/05/12 11:43:55;;;;;;;4.60;2.95;;;;;;;;;;4923218;29;20031;-71
2023/05/12 11:46:25;;;;;;;4.13;2.50;;;;;;;;;;4925244;29;20101;-70
2023/05/12 11:48:54;;;;;;;3.92;2.97;;;;;;;;;;4910907;29;20102;-71
2023/05/12 11:51:19;;;;;;;6.20;2.63;;;;;;;;;;4908569;29;20044;-71
2023/05/12 11:53:45;;;;;;;6.35;2.90;;;;;;;;;;4920996;29;20463;-70
2023/05/12 11:56:16;;;;;;;4.03;2.50;;;;;;;;;;4919928;29;20047;-70
2023/05/12 11:58:50;;;;;;;6.38;2.90;;;;;;;;;;4920725;29;20062;-70
2023/05/12 12:01:15;;;;;;;4.43;2.95;;;;;;;;;;4920395;29;20443;-70
2023/05/12 12:03:46;;;;;;;4.13;2.63;;;;;;;;;;4922170;29;20036;-71
2023/05/12 12:06:11;;;;;;;6.05;2.97;;;;;;;;;;4922422;29;20028;-71
2023/05/12 12:08:39;;;;;;;8.73;3.33;;;;;;;;;;4931436;29;20028;-72
2023/05/12 12:11:06;;;;;;;6.97;2.92;;;;;;;;;;4935784;29;20036;-72
2023/05/12 12:13:31;;;;;;;4.82;3.00;;;;;;;;;;4928883;29;20058;-72
2023/05/12 12:15:56;;;;;;;4.17;2.73;;;;;;;;;;4924205;29;20080;-72
2023/05/12 12:18:21;;;;;;;5.83;3.43;;;;;;;;;;4923940;29;20302;-72
2023/05/12 12:20:47;;;;;;;6.75;3.38;;;;;;;;;;4916907;29;20282;-70
2023/05/12 12:23:12;;;;;;;5.18;2.80;;;;;;;;;;4927451;29;20035;-70
2023/05/12 12:25:37;;;;;;;8.32;3.00;;;;;;;;;;4913010;29;20027;-70
2023/05/12 12:28:03;;;;;;;7.57;2.60;;;;;;;;;;4921396;29;20055;-70
2023/05/12 12:30:28;;;;;;;5.47;2.92;;;;;;;;;;4923238;29;20038;-70
2023/05/12 12:32:54;;;;;;;4.28;2.80;;;;;;;;;;4921430;29;20047;-70
2023/05/12 12:35:19;;;;;;;7.40;2.93;;;;;;;;;;4919017;29;20442;-71
2023/05/12 12:37:50;;;;;;;5.77;2.80;;;;;;;;;;4912979;29;20059;-71
2023/05/12 12:40:16;;;;;;;5.10;2.65;;;;;;;;;;4923349;29;20309;-71
2023/05/12 12:42:41;;;;;;;4.63;3.10;;;;;;;;;;4919902;29;20044;-72
2023/05/12 12:45:10;;;;;;;4.40;2.70;;;;;;;;;;4920891;29;20032;-72
2023/05/12 12:47:36;;;;;;;5.25;2.80;;;;;;;;;;4922477;29;20279;-72
2023/05/12 12:50:02;;;;;;;3.13;2.50;;;;;;;;;;4923474;29;20043;-70
2023/05/12 12:52:27;;;;;;;5.93;2.90;;;;;;;;;;4909381;29;20636;-71
2023/05/12 12:54:53;;;;;;;5.80;2.90;;;;;;;;;;4921746;29;20035;-72
2023/05/12 12:57:19;;;;;;;7.68;3.15;;;;;;;;;;4909401;29;21306;-71
2023/05/12 12:59:45;;;;;;;5.43;2.67;;;;;;;;;;4920288;29;20442;-72
2023/05/12 13:02:10;;;;;;;7.80;3.10;;;;;;;;;;4921270;29;20055;-71
2023/05/12 13:04:35;;;;;;;6.27;2.93;;;;;;;;;;4920969;29;20396;-72
2023/05/12 13:07:01;;;;;;;3.13;2.70;;;;;;;;;;4919656;29;20346;-73
2023/05/12 13:09:26;;;;;;;3.88;2.85;;;;;;;;;;4920351;29;20031;-72
2023/05/12 13:11:52;;;;;;;4.70;2.92;;;;;;;;;;4919498;29;20035;-71
2023/05/12 13:14:17;;;;;;;3.60;2.70;;;;;;;;;;4920283;29;20506;-71
2023/05/12 13:16:43;;;;;;;5.72;2.40;;;;;;;;;;4922170;29;20283;-71
2023/05/12 13:19:08;;;;;;;5.10;2.67;;;;;;;;;;4920164;29;20079;-73
2023/05/12 13:21:33;;;;;;;2.93;2.57;;;;;;;;;;4917352;29;20277;-72
2023/05/12 13:23:59;;;;;;;3.80;2.60;;;;;;;;;;4919817;29;20757;-72
2023/05/12 13:26:24;;;;;;;5.93;3.13;;;;;;;;;;4920503;29;20039;-73
2023/05/12 13:28:49;;;;;;;3.30;2.40;;;;;;;;;;4905627;29;20494;-69
2023/05/12 13:31:14;;;;;;;4.90;2.40;;;;;;;;;;4921194;29;20098;-72
2023/05/12 13:33:40;;;;;;;7.93;2.70;;;;;;;;;;4920404;29;20043;-71
2023/05/12 13:36:05;;;;;;;3.97;2.67;;;;;;;;;;4917597;29;20035;-71
2023/05/12 13:38:31;;;;;;;6.43;2.60;;;;;;;;;;4910815;29;20028;-72
2023/05/12 13:40:56;;;;;;;5.07;2.83;;;;;;;;;;4919696;29;20091;-71
2023/05/12 13:43:21;;;;;;;4.57;2.90;;;;;;;;;;4907959;29;20039;-73
2023/05/12 13:45:46;;;;;;;4.15;2.70;;;;;;;;;;4904784;29;20958;-73
2023/05/12 13:48:12;;;;;;;3.60;2.65;;;;;;;;;;4919081;29;20035;-72
2023/05/12 13:50:37;;;;;;;6.43;2.90;;;;;;;;;;4922760;29;20580;-70
2023/05/12 13:53:03;;;;;;;4.47;2.80;;;;;;;;;;4908932;29;20988;-71
2023/05/12 13:55:28;;;;;;;3.85;2.50;;;;;;;;;;4921005;29;20103;-73
2023/05/12 13:57:53;;;;;;;7.43;2.73;;;;;;;;;;4920189;29;20027;-71
2023/05/12 14:00:19;;;;;;;5.93;3.00;;;;;;;13.71;nan;100790.47;4919759;29;20289;-72
2023/05/12 14:02:44;;;;;;;4.50;2.47;;;;;;;;;;4907302;29;20737;-72
2023/05/12 14:05:10;;;;;;;4.60;3.28;;;;;;;;;;4909294;29;20087;-72
2023/05/12 14:07:35;;;;;;;6.22;3.20;;;;;;;;;;4923541;29;20031;-71
2023/05/12 14:10:01;;;;;;;9.53;3.70;;;;;;;;;;4920011;29;20040;-70
2023/05/12 14:12:26;;;;;;;4.40;2.70;;;;;;;;;;4920480;29;20276;-72
2023/05/12 14:14:52;;;;;;;5.45;2.72;;;;;;;13.36;nan;100799.28;4920254;29;20091;-71
2023/05/12 14:17:17;;;;;;;6.38;2.92;;;;;;;;;;4921435;29;20484;-73
2023/05/12 14:19:43;;;;;;;5.43;3.45;;;;;;;;;;4928097;29;20047;-73
2023/05/12 14:22:08;;;;;;;5.72;2.92;;;;;;;;;;4913080;29;20024;-71
2023/05/12 14:24:33;;;;;;;5.50;2.43;;;;;;;;;;4925737;29;20039;-71
2023/05/12 14:26:59;;;;;;;3.88;2.67;;;;;;;;;;4923152;29;20708;-72
2023/05/12 14:29:24;;;;;;;4.20;2.47;;;;;;;;;;4907055;29;20478;-73
2023/05/12 14:31:50;;;;;;;5.20;2.50;;;;;;;;;;4905241;29;20031;-72